Time;durP1;ratioP1;P1;durP2;ratioP2;P2;SDS_P1;SDS_P2;PMS_P1;PMS_P2;Temp;Humidity;BMP_temperature;BMP_pressure;BME280_temperature;BME280_humidity;BME280_pressure;Samples;Min_cycle;Max_cycle;Signal;HPM_P1;HPM_P2
2023/12/04 00:03:24;;;;;;;0.00;0.00;;;;;;;-4.97;71.14;101708.66;15666969;28;20061;-48
2023/12/04 00:11:00;;;;;;;0.10;0.10;;;;;;;-5.11;70.77;101719.91;15667097;28;20486;-49
2023/12/04 00:18:35;;;;;;;0.10;0.10;;;;;;;-5.07;69.85;101718.81;15670138;28;20119;-50
2023/12/04 00:26:10;;;;;;;0.20;0.20;;;;;;;-5.16;70.56;101714.91;15679393;28;20052;-49
2023/12/04 00:33:44;;;;;;;0.08;0.08;;;;;;;-5.28;71.15;101709.50;15674575;28;20124;-48
2023/12/04 00:41:20;;;;;;;0.10;0.10;;;;;;;-5.18;70.57;101721.16;15680596;28;20329;-47
2023/12/04 00:48:53;;;;;;;0.00;0.00;;;;;;;-5.16;70.84;101722.75;15677452;28;20053;-47
2023/12/04 00:56:30;;;;;;;0.10;0.10;;;;;;;-5.08;71.48;101711.00;15677593;28;20037;-50
2023/12/04 01:04:06;;;;;;;0.00;0.00;;;;;;;-5.06;72.11;101711.78;15679530;28;20056;-49
2023/12/04 01:11:42;;;;;;;4.88;2.92;;;;;;;-4.88;73.68;101701.13;15678783;28;20044;-48
2023/12/04 01:19:15;;;;;;;0.10;0.10;;;;;;;-4.85;75.71;101684.38;15676369;28;20054;-47
2023/12/04 01:26:55;;;;;;;0.50;0.32;;;;;;;-4.32;74.12;101671.72;15676770;28;20045;-47
2023/12/04 01:34:29;;;;;;;0.00;0.00;;;;;;;-4.01;73.77;101674.19;15664738;28;20118;-49
2023/12/04 01:42:04;;;;;;;0.15;0.15;;;;;;;-4.04;74.95;101681.41;15677327;28;20045;-48
2023/12/04 01:49:37;;;;;;;0.57;0.47;;;;;;;-4.08;75.06;101672.88;15674207;28;20260;-49
2023/12/04 01:57:19;;;;;;;0.20;0.20;;;;;;;-4.19;75.91;101673.53;15674904;28;20052;-50
2023/12/04 02:04:55;;;;;;;0.10;0.10;;;;;;;-3.99;74.33;101656.56;15671322;28;20539;-49
2023/12/04 02:12:30;;;;;;;0.00;0.00;;;;;;;-4.14;75.15;101653.13;15671051;28;20033;-47
2023/12/04 02:20:09;;;;;;;0.00;0.00;;;;;;;-4.34;76.18;101639.50;15671494;28;20037;-47
2023/12/04 02:27:50;;;;;;;0.00;0.00;;;;;;;-4.46;77.55;101643.72;15673845;28;20380;-47
2023/12/04 02:35:28;;;;;;;;;;;;;;;-4.32;78.31;101635.03;15657944;28;20126;-48
2023/12/04 02:43:06;;;;;;;0.00;0.00;;;;;;;-4.46;79.45;101620.97;15669700;28;19921;-49
2023/12/04 02:50:39;;;;;;;0.55;0.55;;;;;;;-4.48;78.25;101616.75;15662869;28;20041;-48
2023/12/04 02:58:25;;;;;;;0.00;0.00;;;;;;;-4.20;77.83;101598.41;15671272;28;20110;-48
2023/12/04 03:05:58;;;;;;;0.00;0.00;;;;;;;-4.48;77.40;101590.53;15659069;28;20136;-49
2023/12/04 03:13:34;;;;;;;0.08;0.08;;;;;;;-4.24;76.41;101596.09;15672489;28;20051;-48
2023/12/04 03:21:10;;;;;;;0.00;0.00;;;;;;;-4.39;76.04;101585.59;15671298;28;20048;-47
2023/12/04 03:28:45;;;;;;;0.10;0.10;;;;;;;-4.58;75.92;101579.78;15671142;28;20047;-48
2023/12/04 03:36:19;;;;;;;0.10;0.10;;;;;;;-4.65;76.58;101576.69;15666640;28;20041;-48
2023/12/04 03:43:54;;;;;;;0.10;0.10;;;;;;;-4.39;76.16;101559.38;15667522;28;20128;-48
2023/12/04 03:51:28;;;;;;;0.15;0.15;;;;;;;-4.58;76.56;101555.38;15658222;28;20047;-48
2023/12/04 03:59:09;;;;;;;1.50;1.17;;;;;;;-4.66;75.12;101532.28;15680768;28;20049;-47
2023/12/04 04:06:43;;;;;;;0.13;0.13;;;;;;;-4.48;75.19;101565.19;15683758;28;20148;-49
2023/12/04 04:14:17;;;;;;;0.63;0.63;;;;;;;-4.64;75.77;101562.66;15681239;28;20122;-47
2023/12/04 04:21:52;;;;;;;0.10;0.10;;;;;;;-4.37;74.61;101556.69;15679843;28;20087;-47
2023/12/04 04:29:32;;;;;;;0.47;0.47;;;;;;;-4.66;75.80;101556.69;15683627;28;20506;-50
2023/12/04 04:37:08;;;;;;;0.55;0.55;;;;;;;-4.39;75.75;101548.06;15680796;28;20048;-47
2023/12/04 04:44:46;;;;;;;0.00;0.00;;;;;;;-4.56;75.63;101537.78;15680332;28;20037;-47
2023/12/04 04:52:19;;;;;;;0.10;0.10;;;;;;;-4.30;74.40;101541.41;15679321;28;20055;-50
2023/12/04 04:59:55;;;;;;;0.05;0.05;;;;;;;-4.37;75.07;101530.50;15679063;28;20052;-47
2023/12/04 05:07:31;;;;;;;0.00;0.00;;;;;;;-4.07;74.68;101524.25;15674968;28;20108;-51
2023/12/04 05:15:10;;;;;;;0.00;0.00;;;;;;;-4.55;75.97;101515.91;15679938;28;20419;-48
2023/12/04 05:22:43;;;;;;;0.00;0.00;;;;;;;-4.74;76.20;101508.31;15682354;28;20033;-50
2023/12/04 05:30:21;;;;;;;0.08;0.08;;;;;;;-4.58;75.70;101498.56;15680069;28;20056;-50
2023/12/04 05:37:58;;;;;;;0.38;0.38;;;;;;;-4.85;75.82;101485.38;15678928;28;20459;-47
2023/12/04 05:45:34;;;;;;;0.00;0.00;;;;;;;-4.71;75.66;101484.53;15678121;28;20060;-49
2023/12/04 05:53:07;;;;;;;0.00;0.00;;;;;;;-4.94;76.67;101486.81;15647221;28;20136;-50
2023/12/04 06:00:42;;;;;;;0.00;0.00;;;;;;;-4.36;75.47;101487.63;15665145;28;20040;-46
2023/12/04 06:08:15;;;;;;;0.20;0.20;;;;;;;-4.88;76.30;101482.97;15672026;28;20144;-49
2023/12/04 06:15:50;;;;;;;0.95;0.95;;;;;;;-4.49;76.74;101476.22;15674548;28;20052;-47
2023/12/04 06:23:26;;;;;;;0.15;0.15;;;;;;;-4.13;75.17;101462.59;15676116;28;20037;-46
2023/12/04 06:31:04;;;;;;;0.00;0.00;;;;;;;-4.11;75.07;101471.19;15674753;28;20316;-47
2023/12/04 06:38:48;;;;;;;0.05;0.05;;;;;;;-4.09;75.77;101452.75;15675413;28;20132;-46
2023/12/04 06:46:24;;;;;;;0.00;0.00;;;;;;;-4.02;75.98;101454.03;15675793;28;20546;-48
2023/12/04 06:53:58;;;;;;;0.10;0.10;;;;;;;-3.56;74.94;101454.50;15675753;28;20430;-46
2023/12/04 07:01:33;;;;;;;0.00;0.00;;;;;;;-3.44;75.00;101447.59;15673923;28;20031;-48
2023/12/04 07:09:08;;;;;;;0.10;0.10;;;;;;;-3.21;73.55;101430.31;15671275;28;20412;-46
2023/12/04 07:16:46;;;;;;;0.55;0.55;;;;;;;-3.86;76.47;101431.97;15670032;28;20056;-52
2023/12/04 07:24:21;;;;;;;0.28;0.28;;;;;;;-3.52;75.86;101426.28;15669393;28;20105;-47
2023/12/04 07:31:56;;;;;;;0.00;0.00;;;;;;;-3.66;76.13;101428.03;15683606;28;20041;-46
2023/12/04 07:39:31;;;;;;;0.22;0.22;;;;;;;-3.55;76.26;101426.47;15686332;28;20036;-46
2023/12/04 07:47:09;;;;;;;0.00;0.00;;;;;;;-3.51;77.32;101423.53;15683360;28;20041;-47
2023/12/04 07:54:43;;;;;;;0.00;0.00;;;;;;;-3.23;76.19;101421.69;15685588;28;20086;-46
2023/12/04 08:02:18;;;;;;;0.00;0.00;;;;;;;-3.15;76.38;101422.00;15686680;28;20037;-45
2023/12/04 08:09:53;;;;;;;0.65;0.65;;;;;;;-3.36;76.40;101412.03;15684570;28;20047;-48
2023/12/04 08:17:27;;;;;;;0.03;0.03;;;;;;;-3.39;77.68;101411.38;15677045;28;20554;-46
2023/12/04 08:25:03;;;;;;;0.05;0.05;;;;;;;-3.04;75.71;101405.50;15678682;28;20051;-47
2023/12/04 08:32:41;;;;;;;0.10;0.10;;;;;;;-2.67;75.43;101403.75;15681014;28;20033;-48
2023/12/04 08:40:16;;;;;;;0.00;0.00;;;;;;;-2.81;75.08;101402.09;15684835;28;20053;-46
2023/12/04 08:47:53;;;;;;;0.00;0.00;;;;;;;-2.41;74.17;101394.03;15684705;28;20651;-44
2023/12/04 08:55:26;;;;;;;0.00;0.00;;;;;;;-2.20;73.60;101402.97;15681998;28;20041;-51
2023/12/04 09:03:01;;;;;;;0.00;0.00;;;;;;;-2.22;73.25;101401.44;15680184;28;20071;-49
2023/12/04 09:10:38;;;;;;;0.95;0.95;;;;;;;-2.04;73.83;101400.09;15681391;28;20094;-47
2023/12/04 09:18:14;;;;;;;0.00;0.00;;;;;;;-2.15;73.83;101403.50;15660476;28;20045;-49
2023/12/04 09:25:47;;;;;;;0.20;0.20;;;;;;;-1.93;73.56;101417.72;15682144;28;20132;-47
2023/12/04 09:33:24;;;;;;;0.00;0.00;;;;;;;-1.95;72.98;101417.00;15680543;28;20033;-47
2023/12/04 09:41:01;;;;;;;0.55;0.55;;;;;;;-1.79;73.69;101414.91;15678500;28;20131;-45
2023/12/04 09:48:38;;;;;;;0.20;0.20;;;;;;;-1.56;73.43;101403.50;15677005;28;20155;-47
2023/12/04 09:56:17;;;;;;;0.38;0.38;;;;;;;-1.57;72.13;101401.81;15676563;28;20053;-51
2023/12/04 10:03:57;;;;;;;0.00;0.00;;;;;;;-1.23;71.31;101395.78;15674417;28;20591;-50
2023/12/04 10:11:31;;;;;;;0.10;0.10;;;;;;;-1.30;71.32;101377.84;15673857;28;20098;-51
2023/12/04 10:19:23;;;;;;;0.22;0.13;;;;;;;-1.46;72.65;101366.78;15674473;28;20071;-46
2023/12/04 10:26:56;;;;;;;0.00;0.00;;;;;;;-1.46;73.11;101360.69;15674992;28;20407;-46
2023/12/04 10:34:33;;;;;;;0.00;0.00;;;;;;;-1.53;72.86;101341.06;15676019;28;20041;-47
2023/12/04 10:42:07;;;;;;;0.00;0.00;;;;;;;-1.39;72.50;101330.31;15671820;28;20519;-50
2023/12/04 10:49:44;;;;;;;0.55;0.43;;;;;;;-0.73;70.70;101311.94;15673999;28;20083;-50
2023/12/04 10:57:23;;;;;;;1.63;1.52;;;;;;;-0.64;70.67;101287.47;15675000;28;20073;-47
2023/12/04 11:05:07;;;;;;;0.00;0.00;;;;;;;-0.72;70.91;101280.19;15673762;28;20057;-48
2023/12/04 11:12:46;;;;;;;0.08;0.08;;;;;;;-1.12;71.89;101285.16;15672500;28;20068;-50
2023/12/04 11:20:30;;;;;;;0.20;0.20;;;;;;;-1.15;71.94;101283.59;15674800;28;20045;-50
2023/12/04 11:28:05;;;;;;;2.20;1.77;;;;;;;-0.59;70.46;101283.50;15655357;28;20132;-48
2023/12/04 11:35:40;;;;;;;2.70;1.65;;;;;;;-0.21;69.26;101271.59;15673195;28;20057;-50
2023/12/04 11:43:25;;;;;;;0.17;0.17;;;;;;;-0.49;69.56;101257.22;15672119;28;20184;-51
2023/12/04 11:51:00;;;;;;;0.00;0.00;;;;;;;-0.59;70.08;101253.66;15665845;23;20047;-50
2023/12/04 11:58:43;;;;;;;0.00;0.00;;;;;;;-0.54;69.42;101238.31;15668179;28;20100;-48
2023/12/04 12:06:18;;;;;;;1.20;0.80;;;;;;;-0.41;69.41;101236.34;15610642;28;20045;-52
2023/12/04 12:13:55;;;;;;;0.00;0.00;;;;;;;-0.71;69.85;101191.41;15617846;28;20045;-50
2023/12/04 12:21:29;;;;;;;0.00;0.00;;;;;;;-0.75;71.03;101216.31;15622845;28;20037;-48
2023/12/04 12:29:06;;;;;;;0.00;0.00;;;;;;;-0.52;69.83;101210.00;15603856;28;20095;-48
2023/12/04 12:36:41;;;;;;;0.10;0.10;;;;;;;-0.48;70.04;101197.41;15620107;28;20132;-51
2023/12/04 12:44:16;;;;;;;0.10;0.10;;;;;;;-0.56;70.15;101190.97;15631865;28;20037;-52
2023/12/04 12:51:51;;;;;;;0.00;0.00;;;;;;;-0.63;71.54;101183.69;15619602;28;20045;-52
2023/12/04 12:59:26;;;;;;;0.35;0.35;;;;;;;-0.91;72.89;101175.41;15620075;28;20168;-50
2023/12/04 13:07:02;;;;;;;0.00;0.00;;;;;;;-0.72;71.54;101166.84;15621259;28;20042;-53
2023/12/04 13:14:36;;;;;;;0.10;0.10;;;;;;;-0.64;71.26;101166.22;15645856;28;20067;-52
2023/12/04 13:22:11;;;;;;;0.95;0.95;;;;;;;-0.72;72.16;101153.66;15655140;28;20075;-49
2023/12/04 13:29:44;;;;;;;0.70;0.70;;;;;;;-0.32;71.79;101135.34;15676203;28;20041;-53
2023/12/04 13:37:21;;;;;;;0.25;0.25;;;;;;;-0.53;71.78;101124.78;15678116;28;20056;-53
2023/12/04 13:44:55;;;;;;;1.27;1.17;;;;;;;-0.66;73.00;101110.13;15678670;28;20056;-52
2023/12/04 13:52:33;;;;;;;0.00;0.00;;;;;;;-0.68;73.11;101102.38;15660616;28;20049;-52
2023/12/04 14:00:09;;;;;;;0.00;0.00;;;;;;;-0.44;72.97;101085.44;15681812;28;20510;-53
2023/12/04 14:07:44;;;;;;;4.40;1.23;;;;;;;-0.73;73.58;101098.44;15645288;28;20040;-55
2023/12/04 14:15:17;;;;;;;0.50;0.50;;;;;;;-0.89;74.38;101101.50;15628056;28;20107;-55
2023/12/04 14:22:52;;;;;;;0.55;0.55;;;;;;;-0.65;74.30;101099.47;15676742;28;20048;-53
2023/12/04 14:30:29;;;;;;;0.00;0.00;;;;;;;-0.92;73.79;101078.06;15674579;28;20041;-52
2023/12/04 14:38:04;;;;;;;0.00;0.00;;;;;;;-0.79;73.90;101071.63;15673775;28;20072;-52
2023/12/04 14:45:38;;;;;;;0.00;0.00;;;;;;;-1.09;74.99;101071.53;15665435;28;20072;-51
2023/12/04 14:53:27;;;;;;;0.22;0.22;;;;;;;-1.05;75.30;101063.25;15671307;28;20129;-54
2023/12/04 15:16:49;;;;;;;0.20;0.20;;;;;;;-1.19;75.56;101029.34;15731796;28;20601;-49
2023/12/04 15:24:27;;;;;;;1.05;0.95;;;;;;;-1.29;75.06;101025.78;15717326;28;20052;-51
2023/12/04 15:32:01;;;;;;;0.10;0.10;;;;;;;-1.21;74.90;101025.13;15736623;28;20075;-54
2023/12/04 15:39:36;;;;;;;0.00;0.00;;;;;;;-1.05;74.65;101028.19;15711749;28;20128;-53
2023/12/04 15:47:10;;;;;;;0.30;0.30;;;;;;;-1.14;74.25;101018.41;15738232;28;20095;-53
2023/12/04 15:54:45;;;;;;;1.63;1.52;;;;;;;-1.23;74.53;101009.47;15731231;28;20041;-53
2023/12/04 16:02:19;;;;;;;0.10;0.10;;;;;;;-1.01;73.65;101010.34;15746388;28;20044;-55
2023/12/04 16:09:56;;;;;;;0.10;0.10;;;;;;;-1.22;74.63;101002.41;15744611;28;20113;-53
2023/12/04 16:17:33;;;;;;;0.00;0.00;;;;;;;-0.97;73.37;101002.03;15742764;28;20055;-54
2023/12/04 16:25:11;;;;;;;0.20;0.20;;;;;;;-1.09;73.74;100982.81;15743955;28;20428;-53
2023/12/04 16:32:46;;;;;;;0.40;0.40;;;;;;;-1.05;73.36;100976.31;15736300;28;20064;-53
2023/12/04 16:40:27;;;;;;;0.00;0.00;;;;;;;-0.79;72.82;100963.59;15717734;28;20352;-55
2023/12/04 16:48:02;;;;;;;0.40;0.40;;;;;;;-1.07;73.13;100957.19;15726239;28;20045;-55
2023/12/04 16:55:37;;;;;;;0.10;0.10;;;;;;;-0.98;72.82;100957.34;15727041;28;20048;-52
2023/12/04 17:03:11;;;;;;;3.10;2.05;;;;;;;-1.05;73.05;100954.44;15725686;28;20127;-54
2023/12/04 17:10:50;;;;;;;0.55;0.55;;;;;;;-0.74;72.43;100942.13;15745873;28;20036;-51
2023/12/04 17:18:24;;;;;;;0.00;0.00;;;;;;;-1.02;73.06;100933.09;15741544;28;20044;-50
2023/12/04 17:26:00;;;;;;;0.00;0.00;;;;;;;-0.97;73.33;100924.81;15738362;28;20065;-51
2023/12/04 17:33:34;;;;;;;0.10;0.10;;;;;;;-0.86;72.35;100914.16;15741679;28;20040;-50
2023/12/04 17:41:11;;;;;;;0.00;0.00;;;;;;;-1.03;73.23;100905.06;15720550;28;20044;-50
2023/12/04 17:48:47;;;;;;;0.20;0.17;;;;;;;-0.85;72.24;100900.84;15733412;28;20029;-49
2023/12/04 17:56:22;;;;;;;0.00;0.00;;;;;;;-0.65;71.26;100891.22;15740134;28;20696;-50
2023/12/04 18:03:56;;;;;;;0.22;0.22;;;;;;;-0.79;72.21;100888.97;15737154;28;20066;-52
2023/12/04 18:11:33;;;;;;;0.30;0.30;;;;;;;-0.97;71.99;100888.75;15739022;28;20040;-50
2023/12/04 18:19:07;;;;;;;0.25;0.25;;;;;;;-0.60;71.56;100890.84;15734350;28;20048;-52
2023/12/04 18:26:44;;;;;;;0.10;0.10;;;;;;;-0.77;71.46;100887.03;15739134;28;20040;-52
2023/12/04 18:34:19;;;;;;;0.00;0.00;;;;;;;-0.80;71.03;100885.47;15720890;28;20044;-51
2023/12/04 18:41:55;;;;;;;0.10;0.10;;;;;;;-0.63;70.37;100862.94;15725333;28;20070;-56
2023/12/04 18:49:33;;;;;;;0.00;0.00;;;;;;;-0.97;72.09;100843.13;15719067;28;20624;-51
2023/12/04 18:57:08;;;;;;;0.00;0.00;;;;;;;-1.16;71.80;100776.25;15735866;28;20055;-52
2023/12/04 19:04:43;;;;;;;0.15;0.15;;;;;;;-1.01;72.31;100825.94;15734784;28;20041;-53
2023/12/04 19:12:20;;;;;;;0.00;0.00;;;;;;;-1.12;72.78;100809.25;15734140;28;20053;-53
2023/12/04 19:19:57;;;;;;;0.50;0.50;;;;;;;-0.94;71.66;100793.63;15720527;28;20416;-52
2023/12/04 19:27:32;;;;;;;0.32;0.32;;;;;;;-1.37;72.53;100763.13;15714869;28;20056;-49
2023/12/04 19:35:06;;;;;;;0.85;0.63;;;;;;;-0.98;72.15;100800.16;15734644;28;20072;-48
2023/12/04 19:42:42;;;;;;;2.53;0.70;;;;;;;-0.96;71.91;100800.00;15710665;28;20033;-51
2023/12/04 19:50:29;;;;;;;1.65;1.38;;;;;;;-1.04;72.11;100814.66;15716254;28;20039;-50
2023/12/04 19:58:05;;;;;;;0.05;0.05;;;;;;;-0.97;71.12;100796.53;15702459;28;20384;-50
2023/12/04 20:05:41;;;;;;;0.73;0.73;;;;;;;-1.07;71.30;100791.25;15726466;28;20441;-50
2023/12/04 20:13:19;;;;;;;0.03;0.03;;;;;;;-1.31;71.47;100790.72;15724536;28;20047;-57
2023/12/04 20:20:54;;;;;;;0.00;0.00;;;;;;;-1.09;70.78;100794.97;15724239;28;20040;-48
2023/12/04 20:28:29;;;;;;;4.85;1.65;;;;;;;-1.21;71.04;100781.09;15717500;28;20048;-52
2023/12/04 20:36:07;;;;;;;0.00;0.00;;;;;;;-1.53;72.33;100777.75;15722728;28;20040;-51
2023/12/04 20:43:42;;;;;;;0.40;0.40;;;;;;;-1.51;71.36;100784.53;15728650;28;20584;-54
2023/12/04 20:51:20;;;;;;;0.00;0.00;;;;;;;-1.31;70.50;100774.91;15724334;28;20403;-52
2023/12/04 20:58:56;;;;;;;4.95;2.85;;;;;;;-1.46;70.85;100776.25;15726755;28;20075;-53
2023/12/04 21:06:30;;;;;;;0.40;0.40;;;;;;;-1.66;71.73;100772.69;15724239;28;20514;-55
2023/12/04 21:14:05;;;;;;;1.60;1.27;;;;;;;-1.73;72.44;100759.22;15734082;28;20068;-53
2023/12/04 21:21:43;;;;;;;1.02;0.57;;;;;;;-1.70;71.68;100751.06;15718261;28;20064;-53
2023/12/04 21:29:18;;;;;;;2.35;2.08;;;;;;;-1.85;72.74;100753.19;15743529;28;20070;-55
2023/12/04 21:36:54;;;;;;;0.45;0.45;;;;;;;-1.58;71.62;100750.03;15721861;28;20049;-50
2023/12/04 21:44:33;;;;;;;0.30;0.30;;;;;;;-2.25;73.32;100755.69;15739050;28;20037;-55
2023/12/04 21:52:09;;;;;;;3.00;0.95;;;;;;;-2.11;72.96;100733.50;15724078;28;20049;-53
2023/12/04 21:59:50;;;;;;;0.47;0.47;;;;;;;-2.58;74.42;100731.22;15699199;28;20388;-48
2023/12/04 22:07:28;;;;;;;0.10;0.10;;;;;;;-2.25;73.07;100724.16;15720644;28;20037;-53
2023/12/04 22:15:06;;;;;;;0.20;0.20;;;;;;;-2.86;73.80;100658.28;15730264;28;20471;-57
2023/12/04 22:22:41;;;;;;;0.00;0.00;;;;;;;-2.77;74.44;100710.06;15730306;28;20082;-50
2023/12/04 22:30:20;;;;;;;0.00;0.00;;;;;;;-2.26;72.82;100716.41;15719236;28;20368;-52
2023/12/04 22:37:55;;;;;;;0.10;0.10;;;;;;;-2.39;73.03;100706.91;15702674;28;20136;-53
2023/12/04 22:45:30;;;;;;;0.30;0.30;;;;;;;-2.70;74.64;100689.41;15718183;28;20064;-54
2023/12/04 22:53:04;;;;;;;0.20;0.20;;;;;;;-2.82;75.10;100665.78;15719440;28;20040;-52
2023/12/04 23:00:39;;;;;;;0.05;0.05;;;;;;;-2.97;75.17;100668.84;15738014;28;20090;-54
2023/12/04 23:08:13;;;;;;;0.15;0.15;;;;;;;-2.98;75.40;100675.06;15727448;28;20045;-53
2023/12/04 23:15:51;;;;;;;0.20;0.20;;;;;;;-2.67;73.85;100666.31;15730448;28;20082;-55
2023/12/04 23:23:27;;;;;;;0.22;0.22;;;;;;;-2.76;74.46;100658.34;15741854;28;20056;-54
2023/12/04 23:31:05;;;;;;;0.75;0.60;;;;;;;-2.86;74.39;100666.16;15727385;28;20036;-50
2023/12/04 23:38:38;;;;;;;0.20;0.20;;;;;;;-2.93;74.05;100654.50;15735508;28;20056;-53
2023/12/04 23:46:13;;;;;;;0.00;0.00;;;;;;;-2.88;73.96;100642.66;15754435;23;20123;-50
2023/12/04 23:53:46;;;;;;;0.20;0.20;;;;;;;-2.85;74.59;100631.03;15796178;28;20048;-51
